Time;durP1;ratioP1;P1;durP2;ratioP2;P2;SDS_P1;SDS_P2;PMS_P1;PMS_P2;Temp;Humidity;BMP_temperature;BMP_pressure;BME280_temperature;BME280_humidity;BME280_pressure;Samples;Min_cycle;Max_cycle;Signal;HPM_P1;HPM_P2
2023/10/28 00:02:05;;;;;;;0.60;0.60;;;;;;;13.98;61.50;98256.09;4462262;32;33373;-81
2023/10/28 00:04:44;;;;;;;0.50;0.50;;;;;;;13.72;62.41;98259.12;4464392;32;33561;-82
2023/10/28 00:07:13;;;;;;;0.60;0.60;;;;;;;14.05;61.24;98254.03;4462541;32;33139;-83
2023/10/28 00:09:43;;;;;;;0.60;0.60;;;;;;;13.98;61.91;98260.47;4462909;32;34058;-79
2023/10/28 00:12:17;;;;;;;2.95;0.80;;;;;;;13.89;62.18;98256.53;4453674;32;32591;-83
2023/10/28 00:14:46;;;;;;;0.77;0.70;;;;;;;13.91;62.48;98265.13;4473351;31;33789;-79
2023/10/28 00:17:18;;;;;;;0.95;0.68;;;;;;;13.97;62.23;98259.62;4463046;32;33957;-80
2023/10/28 00:19:48;;;;;;;0.68;0.60;;;;;;;14.03;62.09;98264.50;4462200;32;34868;-80
2023/10/28 00:22:22;;;;;;;0.60;0.60;;;;;;;13.84;63.15;98275.03;4463081;32;34536;-81
2023/10/28 00:24:52;;;;;;;0.50;0.50;;;;;;;14.04;62.03;98271.44;4468148;32;33701;-80
2023/10/28 00:27:23;;;;;;;2.40;0.80;;;;;;;13.96;62.17;98264.91;4462210;32;33842;-82
2023/10/28 00:29:53;;;;;;;0.50;0.50;;;;;;;14.03;62.16;98267.12;4462254;32;32872;-82
2023/10/28 00:32:22;;;;;;;0.62;0.62;;;;;;;13.82;62.63;98266.44;4466612;32;34070;-81
2023/10/28 00:34:51;;;;;;;1.35;0.70;;;;;;;14.01;62.14;98263.78;4467431;32;33669;-81
2023/10/28 00:37:26;;;;;;;0.60;0.60;;;;;;;13.74;62.68;98271.16;4462297;32;33098;-81
2023/10/28 00:39:55;;;;;;;0.50;0.50;;;;;;;13.98;62.18;98269.13;4462297;32;33719;-82
2023/10/28 00:42:26;;;;;;;0.60;0.60;;;;;;;13.97;62.24;98266.59;4465196;32;33671;-80
2023/10/28 00:44:55;;;;;;;0.60;0.60;;;;;;;13.81;63.17;98272.56;4463504;32;33641;-84
2023/10/28 00:47:28;;;;;;;1.37;1.02;;;;;;;13.73;63.44;98279.09;4467739;32;33238;-80
2023/10/28 00:49:58;;;;;;;0.80;0.80;;;;;;;13.89;62.96;98280.00;4462487;32;33901;-80
2023/10/28 00:52:28;;;;;;;0.65;0.65;;;;;;;13.97;62.22;98283.09;4462123;32;34618;-80
2023/10/28 00:54:57;;;;;;;0.68;0.60;;;;;;;14.04;62.19;98291.47;4464281;32;33017;-83
2023/10/28 00:57:33;;;;;;;1.40;0.80;;;;;;;13.76;63.04;98294.56;4467803;32;33832;-81
2023/10/28 01:00:03;;;;;;;0.60;0.60;;;;;;;13.89;62.75;98303.47;4466390;32;33752;-80
2023/10/28 01:02:36;;;;;;;0.60;0.60;;;;;;;13.82;63.16;98304.69;4461822;32;33699;-80
2023/10/28 01:05:11;;;;;;;1.17;0.60;;;;;;;13.76;63.44;98313.66;4462710;32;34705;-81
2023/10/28 01:07:44;;;;;;;0.95;0.80;;;;;;;13.81;63.55;98313.44;4447802;32;31584;-82
2023/10/28 01:10:24;;;;;;;1.15;0.85;;;;;;;13.56;64.34;98312.00;4467758;32;34140;-81
2023/10/28 01:12:59;;;;;;;0.62;0.62;;;;;;;13.38;65.81;98305.03;4466573;32;34493;-82
2023/10/28 01:15:28;;;;;;;0.68;0.68;;;;;;;13.59;64.65;98306.63;4473212;32;34204;-80
2023/10/28 01:17:58;;;;;;;3.17;0.80;;;;;;;13.37;65.64;98300.75;4477902;31;33331;-81
2023/10/28 01:20:27;;;;;;;1.10;0.60;;;;;;;13.59;65.03;98308.41;4471968;32;33859;-81
2023/10/28 01:23:00;;;;;;;0.40;0.40;;;;;;;13.60;64.75;98308.34;4483109;31;35185;-79
2023/10/28 01:25:30;;;;;;;0.80;0.80;;;;;;;13.45;65.24;98309.87;4481844;32;34245;-83
2023/10/28 01:28:03;;;;;;;1.17;0.70;;;;;;;13.56;64.93;98313.78;4461736;32;32847;-80
2023/10/28 01:30:31;;;;;;;0.82;0.82;;;;;;;13.18;66.21;98309.37;4462051;32;34324;-82
2023/10/28 01:33:03;;;;;;;0.70;0.70;;;;;;;13.24;66.04;98311.72;4466085;32;34023;-82
2023/10/28 01:35:33;;;;;;;1.12;1.05;;;;;;;13.40;65.78;98308.41;4467729;32;34313;-78
2023/10/28 01:38:04;;;;;;;1.85;0.60;;;;;;;13.19;66.38;98311.09;4461306;32;33676;-79
2023/10/28 01:40:34;;;;;;;0.70;0.70;;;;;;;13.22;66.21;98316.16;4461780;32;32914;-82
2023/10/28 01:43:05;;;;;;;0.85;0.70;;;;;;;12.90;67.48;98315.00;4463211;32;34370;-80
2023/10/28 01:45:34;;;;;;;1.55;0.73;;;;;;;12.98;67.54;98323.31;4475659;31;33846;-81
2023/10/28 01:48:09;;;;;;;1.48;0.80;;;;;;;13.09;66.41;98319.38;4463637;32;34131;-80
2023/10/28 01:50:38;;;;;;;1.95;0.90;;;;;;;12.60;68.18;98320.62;4461272;32;33872;-82
2023/10/28 01:53:11;;;;;;;0.70;0.70;;;;;;;12.68;68.28;98322.91;4462046;32;34580;-80
2023/10/28 01:55:40;;;;;;;3.50;0.75;;;;;;;12.80;67.28;98322.34;4462051;32;34274;-81
2023/10/28 01:58:13;;;;;;;0.88;0.77;;;;;;;12.75;67.62;98320.88;4466989;32;36276;-79
2023/10/28 02:00:41;;;;;;;0.70;0.62;;;;;;;12.74;67.58;98337.41;4461423;32;33533;-80
2023/10/28 02:03:13;;;;;;;1.33;0.80;;;;;;;12.84;67.25;98345.66;4449982;32;34237;-81
2023/10/28 02:05:42;;;;;;;1.02;0.62;;;;;;;12.59;68.03;98357.13;4461713;32;33774;-80
2023/10/28 02:08:14;;;;;;;0.60;0.60;;;;;;;12.56;68.27;98352.03;4467240;32;32957;-80
2023/10/28 02:10:43;;;;;;;0.82;0.82;;;;;;;12.21;69.84;98354.37;4461708;32;33512;-80
2023/10/28 02:13:16;;;;;;;0.95;0.90;;;;;;;12.61;68.37;98350.09;4462887;32;34709;-81
2023/10/28 02:15:44;;;;;;;0.60;0.60;;;;;;;12.48;69.17;98361.94;4449661;32;32881;-81
2023/10/28 02:18:15;;;;;;;1.40;1.30;;;;;;;12.57;68.57;98364.16;4461191;32;34870;-81
2023/10/28 02:20:44;;;;;;;0.70;0.70;;;;;;;12.45;69.22;98364.69;4467083;32;33466;-79
2023/10/28 02:23:17;;;;;;;0.68;0.60;;;;;;;12.38;69.58;98371.88;4447721;32;34578;-81
2023/10/28 02:25:46;;;;;;;0.60;0.60;;;;;;;12.15;70.97;98360.69;4463955;32;34045;-82
2023/10/28 02:28:16;;;;;;;0.85;0.80;;;;;;;12.35;70.05;98361.63;4460873;32;33372;-80
2023/10/28 02:30:46;;;;;;;0.75;0.60;;;;;;;12.76;68.67;98365.06;4466682;32;34392;-80
2023/10/28 02:33:21;;;;;;;0.68;0.68;;;;;;;12.53;69.66;98363.44;4465146;32;34556;-80
2023/10/28 02:35:50;;;;;;;1.50;0.98;;;;;;;12.65;69.86;98362.06;4463453;32;33998;-80
2023/10/28 02:38:23;;;;;;;1.00;0.62;;;;;;;12.74;69.37;98364.28;4461158;32;33195;-82
2023/10/28 02:40:52;;;;;;;1.60;0.93;;;;;;;12.86;69.02;98362.06;4461867;32;34455;-80
2023/10/28 02:43:21;;;;;;;0.50;0.50;;;;;;;12.59;70.17;98359.75;4466435;32;33729;-80
2023/10/28 02:45:50;;;;;;;0.60;0.60;;;;;;;12.71;69.65;98351.41;4466584;32;33374;-80
2023/10/28 02:48:22;;;;;;;0.52;0.52;;;;;;;12.63;69.68;98348.28;4476875;32;34484;-81
2023/10/28 02:50:52;;;;;;;1.65;0.85;;;;;;;12.72;69.29;98347.87;4476806;32;34236;-79
2023/10/28 02:53:30;;;;;;;0.82;0.68;;;;;;;12.52;70.15;98355.72;4461197;32;33205;-81
2023/10/28 02:56:02;;;;;;;0.93;0.62;;;;;;;12.51;70.27;98349.63;4466280;32;33821;-81
2023/10/28 02:58:35;;;;;;;2.28;0.90;;;;;;;12.61;70.34;98352.69;4460702;32;33034;-81
2023/10/28 03:01:09;;;;;;;1.80;0.70;;;;;;;12.81;69.82;98354.44;4460974;32;34525;-80
2023/10/28 03:03:40;;;;;;;0.80;0.80;;;;;;;12.48;70.69;98348.94;4466281;32;33784;-82
2023/10/28 03:06:11;;;;;;;0.60;0.60;;;;;;;12.66;70.05;98345.56;4466426;32;35022;-82
2023/10/28 03:08:42;;;;;;;0.88;0.70;;;;;;;12.53;70.37;98344.38;4465357;32;33882;-78
2023/10/28 03:11:13;;;;;;;0.85;0.60;;;;;;;12.78;69.54;98334.63;4461059;32;33461;-80
2023/10/28 03:13:42;;;;;;;0.95;0.80;;;;;;;12.62;69.87;98343.16;4464543;32;33520;-80
2023/10/28 03:16:15;;;;;;;0.75;0.60;;;;;;;12.70;69.40;98348.84;4465626;31;34139;-80
2023/10/28 03:18:44;;;;;;;0.80;0.80;;;;;;;12.70;69.71;98349.69;4470035;32;33959;-80
2023/10/28 03:21:15;;;;;;;1.10;0.80;;;;;;;12.25;71.11;98357.69;4460403;32;32997;-81
2023/10/28 03:23:45;;;;;;;0.77;0.70;;;;;;;12.53;70.16;98362.59;4445947;32;33625;-81
2023/10/28 03:26:15;;;;;;;0.60;0.60;;;;;;;12.52;70.14;98364.34;4460671;32;34545;-80
2023/10/28 03:28:45;;;;;;;4.87;0.90;;;;;;;12.34;70.77;98363.34;4465264;32;32957;-82
2023/10/28 03:31:18;;;;;;;0.60;0.60;;;;;;;12.58;70.08;98363.22;4468601;32;34248;-81
2023/10/28 03:33:48;;;;;;;0.70;0.70;;;;;;;13.01;68.65;98358.78;4463067;32;33569;-80
2023/10/28 03:36:17;;;;;;;1.37;0.80;;;;;;;12.57;70.23;98366.75;4463032;32;34300;-82
2023/10/28 03:38:48;;;;;;;1.58;0.95;;;;;;;12.80;69.53;98364.00;4462639;32;33333;-83
2023/10/28 03:41:23;;;;;;;1.67;1.20;;;;;;;12.66;70.32;98375.91;4468370;32;34713;-81
2023/10/28 03:43:52;;;;;;;0.88;0.88;;;;;;;12.68;69.94;98382.75;4462363;32;34533;-82
2023/10/28 03:46:25;;;;;;;1.45;0.90;;;;;;;12.45;70.71;98373.31;4462714;32;34569;-79
2023/10/28 03:48:53;;;;;;;1.12;0.90;;;;;;;12.62;70.28;98374.38;4462603;32;33899;-80
2023/10/28 03:51:23;;;;;;;1.30;0.80;;;;;;;12.35;70.72;98388.47;4464421;32;34391;-80
2023/10/28 03:53:53;;;;;;;1.33;0.80;;;;;;;12.46;70.30;98385.41;4467851;32;34853;-82
2023/10/28 03:56:25;;;;;;;0.82;0.70;;;;;;;12.32;70.71;98382.53;4465193;32;34818;-80
2023/10/28 03:58:54;;;;;;;1.65;0.90;;;;;;;12.47;70.15;98381.91;4448578;32;33239;-81
2023/10/28 04:01:28;;;;;;;0.70;0.70;;;;;;;12.36;70.20;98390.13;4448114;32;34479;-81
2023/10/28 04:03:57;;;;;;;0.90;0.73;;;;;;;12.33;70.14;98386.84;4452587;32;33467;-80
2023/10/28 04:06:29;;;;;;;0.82;0.82;;;;;;;12.51;69.37;98388.66;4452391;32;33378;-79
2023/10/28 04:09:00;;;;;;;0.82;0.68;;;;;;;12.43;69.22;98395.94;4446826;32;33129;-81
2023/10/28 04:11:29;;;;;;;3.00;1.85;;;;;;;12.13;70.51;98390.25;4446831;32;34111;-80
2023/10/28 04:13:58;;;;;;;1.50;0.98;;;;;;;12.16;70.52;98393.56;4448682;32;34067;-82
2023/10/28 04:16:30;;;;;;;2.33;1.00;;;;;;;12.18;70.32;98385.72;4448397;32;34211;-79
2023/10/28 04:18:59;;;;;;;1.00;0.90;;;;;;;12.20;70.20;98381.28;4451568;32;33063;-80
2023/10/28 04:21:35;;;;;;;1.77;1.00;;;;;;;12.24;69.73;98390.66;4448103;32;34320;-80
2023/10/28 04:24:07;;;;;;;1.12;1.02;;;;;;;12.15;70.31;98397.09;4478392;31;34133;-81
2023/10/28 04:26:40;;;;;;;1.35;1.05;;;;;;;12.03;70.79;98396.72;4478053;32;33438;-82
2023/10/28 04:29:12;;;;;;;1.58;1.05;;;;;;;12.07;70.34;98395.69;4472175;32;33633;-79
2023/10/28 04:31:42;;;;;;;0.70;0.70;;;;;;;12.11;70.34;98394.66;4462348;32;34416;-80
2023/10/28 04:34:17;;;;;;;0.85;0.85;;;;;;;12.10;69.95;98398.16;4464183;32;34073;-80
2023/10/28 04:36:46;;;;;;;0.88;0.88;;;;;;;11.83;70.67;98398.31;4462140;32;33656;-83
2023/10/28 04:39:19;;;;;;;0.80;0.80;;;;;;;11.85;70.24;98401.69;4466444;32;33758;-79
2023/10/28 04:41:52;;;;;;;1.00;0.90;;;;;;;12.03;69.80;98401.91;4462750;32;36087;-78
2023/10/28 04:44:29;;;;;;;1.42;1.23;;;;;;;11.87;70.56;98406.88;4467682;32;34856;-80
2023/10/28 04:47:03;;;;;;;1.10;1.00;;;;;;;11.97;70.12;98409.97;4477412;32;34389;-82
2023/10/28 04:49:32;;;;;;;0.80;0.80;;;;;;;11.80;70.83;98400.19;4469369;31;34327;-81
2023/10/28 04:52:04;;;;;;;1.67;0.88;;;;;;;11.69;71.10;98403.19;4464236;32;147829;-83
2023/10/28 04:54:35;;;;;;;0.95;0.85;;;;;;;11.67;71.36;98402.41;4463350;32;34371;-83
2023/10/28 04:57:09;;;;;;;1.35;1.23;;;;;;;11.66;71.86;98403.31;4463392;32;32944;-80
2023/10/28 04:59:39;;;;;;;1.48;1.05;;;;;;;11.68;71.11;98406.69;4462304;32;33150;-82
2023/10/28 05:02:09;;;;;;;2.15;1.52;;;;;;;11.56;71.63;98399.38;4461940;32;34081;-80
2023/10/28 05:04:38;;;;;;;2.90;1.75;;;;;;;11.67;71.29;98405.00;4467661;32;33759;-80
2023/10/28 05:07:08;;;;;;;2.58;1.25;;;;;;;11.69;71.04;98403.19;4463461;32;34280;-79
2023/10/28 05:09:38;;;;;;;3.12;1.70;;;;;;;11.55;71.36;98408.94;4462699;32;33786;-81
2023/10/28 05:12:09;;;;;;;2.25;1.30;;;;;;;11.39;71.77;98407.81;4464959;32;34521;-80
2023/10/28 05:14:37;;;;;;;2.78;1.45;;;;;;;11.22;72.80;98424.84;4467549;32;33046;-81
2023/10/28 05:17:09;;;;;;;2.45;1.40;;;;;;;11.27;72.51;98419.47;4462726;32;33483;-83
2023/10/28 05:19:39;;;;;;;2.70;1.75;;;;;;;11.45;72.11;98418.81;4461859;32;33442;-81
2023/10/28 05:22:10;;;;;;;1.85;1.20;;;;;;;11.42;72.06;98425.84;4462007;32;34131;-82
2023/10/28 05:24:43;;;;;;;2.37;1.52;;;;;;;11.50;72.17;98426.41;4462587;32;33567;-79
2023/10/28 05:27:14;;;;;;;1.37;1.27;;;;;;;11.52;71.58;98425.47;4467174;32;33988;-79
2023/10/28 05:29:43;;;;;;;1.45;1.33;;;;;;;11.56;71.96;98431.37;4461903;32;33803;-83
2023/10/28 05:32:15;;;;;;;1.15;1.10;;;;;;;11.50;72.37;98432.47;4462341;32;33858;-80
2023/10/28 05:34:44;;;;;;;1.92;1.23;;;;;;;11.52;72.09;98435.88;4466225;32;33953;-80
2023/10/28 05:37:16;;;;;;;1.05;0.90;;;;;;;11.39;72.65;98454.53;4467471;32;34671;-80
2023/10/28 05:39:46;;;;;;;1.33;1.02;;;;;;;11.44;72.82;98466.44;4448382;32;32803;-79
2023/10/28 05:42:17;;;;;;;3.17;1.13;;;;;;;11.31;73.85;98479.03;4464355;32;34204;-83
2023/10/28 05:44:47;;;;;;;1.52;1.27;;;;;;;11.32;74.00;98488.50;4466506;32;33620;-81
2023/10/28 05:47:18;;;;;;;3.10;1.30;;;;;;;11.41;73.61;98484.75;4449732;32;33423;-81
2023/10/28 05:49:48;;;;;;;3.30;1.50;;;;;;;11.47;73.26;98489.69;4466971;32;32983;-80
2023/10/28 05:52:20;;;;;;;2.60;1.50;;;;;;;11.57;74.15;98502.34;4474338;32;34727;-78
2023/10/28 05:54:50;;;;;;;2.35;1.45;;;;;;;11.83;74.72;98506.59;4478676;32;34584;-82
2023/10/28 05:57:21;;;;;;;4.15;1.87;;;;;;;11.87;77.98;98503.88;4477476;32;33409;-81
2023/10/28 05:59:50;;;;;;;;;;;;;;;11.88;78.50;98505.56;4480344;32;33441;-79
2023/10/28 06:02:19;;;;;;;3.60;1.70;;;;;;;11.99;78.76;98514.72;4482495;32;34431;-81
2023/10/28 06:04:50;;;;;;;3.37;1.52;;;;;;;12.07;78.69;98515.25;4477645;32;33532;-78
2023/10/28 06:07:22;;;;;;;2.00;1.45;;;;;;;12.37;76.71;98519.28;4476911;32;34962;-81
2023/10/28 06:09:53;;;;;;;1.45;1.27;;;;;;;12.26;77.57;98528.41;4476842;32;32620;-80
2023/10/28 06:12:26;;;;;;;2.53;1.45;;;;;;;12.51;76.38;98531.72;4482876;31;33452;-80
2023/10/28 06:14:55;;;;;;;4.62;1.90;;;;;;;12.35;78.03;98535.88;4477621;32;34540;-79
2023/10/28 06:17:31;;;;;;;3.35;1.87;;;;;;;12.62;76.82;98527.88;4474650;32;33867;-81
2023/10/28 06:20:01;;;;;;;3.85;1.75;;;;;;;12.53;77.52;98529.91;4458482;32;33549;-80
2023/10/28 06:22:36;;;;;;;3.30;1.85;;;;;;;12.38;79.30;98539.19;4460482;32;34001;-82
2023/10/28 06:25:17;;;;;;;8.00;1.48;;;;;;;12.55;79.32;98541.12;4466522;32;34100;-82
2023/10/28 06:27:46;;;;;;;3.42;2.00;;;;;;;12.77;79.20;98540.25;4462485;32;34546;-82
2023/10/28 06:30:19;;;;;;;2.40;1.62;;;;;;;12.86;79.38;98544.25;4461441;32;33939;-79
2023/10/28 06:32:52;;;;;;;3.42;2.25;;;;;;;13.04;79.23;98546.09;4462278;32;33651;-82
2023/10/28 06:35:23;;;;;;;3.50;1.87;;;;;;;13.23;78.51;98549.59;4463063;32;33720;-82
2023/10/28 06:37:52;;;;;;;3.08;1.75;;;;;;;13.41;77.66;98542.81;4466548;32;33856;-81
2023/10/28 06:40:24;;;;;;;4.17;1.90;;;;;;;13.31;78.97;98551.06;4461167;32;32543;-80
2023/10/28 06:43:01;;;;;;;4.30;1.45;;;;;;;13.39;79.26;98559.44;4461264;32;33558;-81
2023/10/28 06:45:29;;;;;;;2.15;1.23;;;;;;;13.40;79.21;98563.72;4462127;32;34799;-81
2023/10/28 06:48:03;;;;;;;2.65;1.35;;;;;;;13.64;76.41;98565.25;4466753;32;34028;-82
2023/10/28 06:50:32;;;;;;;1.40;1.20;;;;;;;13.55;77.85;98573.47;4465600;32;33316;-81
2023/10/28 06:53:09;;;;;;;1.62;1.30;;;;;;;13.51;78.30;98566.72;4461037;32;34693;-79
2023/10/28 06:55:45;;;;;;;2.60;1.58;;;;;;;13.77;76.47;98567.31;4461243;32;34458;-79
2023/10/28 06:58:15;;;;;;;2.20;1.20;;;;;;;13.55;77.92;98573.47;4461196;32;33558;-82
2023/10/28 07:00:51;;;;;;;3.12;1.10;;;;;;;13.83;76.39;98577.47;4466497;32;33294;-82
2023/10/28 07:03:20;;;;;;;2.70;1.52;;;;;;;13.77;76.57;98582.97;4462974;32;33676;-80
2023/10/28 07:05:51;;;;;;;2.12;1.30;;;;;;;13.83;75.85;98577.47;4463443;32;34999;-81
2023/10/28 07:08:30;;;;;;;5.37;2.00;;;;;;;13.83;76.33;98588.75;4462756;32;33124;-80
2023/10/28 07:11:00;;;;;;;2.72;1.60;;;;;;;14.11;74.71;98590.16;4462825;32;34023;-80
2023/10/28 07:13:32;;;;;;;3.20;1.65;;;;;;;13.90;75.98;98593.72;4468403;32;34162;-80
2023/10/28 07:16:02;;;;;;;3.05;1.55;;;;;;;13.70;77.19;98603.25;4467268;32;34099;-84
2023/10/28 07:18:37;;;;;;;6.95;2.78;;;;;;;13.80;76.99;98604.53;4462437;32;34129;-79
2023/10/28 07:21:06;;;;;;;3.95;1.83;;;;;;;13.97;75.44;98622.03;4462297;32;33572;-81
2023/10/28 07:23:38;;;;;;;3.70;1.67;;;;;;;13.78;76.78;98621.16;4464860;32;32880;-79
2023/10/28 07:26:08;;;;;;;3.17;1.52;;;;;;;13.96;75.56;98635.97;4471461;32;34895;-82
2023/10/28 07:28:41;;;;;;;3.55;1.98;;;;;;;13.84;76.57;98639.13;4478429;32;33688;-81
2023/10/28 07:31:12;;;;;;;2.22;1.37;;;;;;;13.88;76.62;98645.91;4477860;32;34345;-81
2023/10/28 07:33:44;;;;;;;3.33;1.60;;;;;;;13.85;76.23;98653.88;4478871;32;34041;-80
2023/10/28 07:36:19;;;;;;;2.12;1.55;;;;;;;13.81;76.81;98657.50;4483861;32;33309;-80
2023/10/28 07:38:48;;;;;;;5.20;1.70;;;;;;;13.87;76.98;98654.66;4483893;32;33570;-81
2023/10/28 07:41:19;;;;;;;2.65;1.42;;;;;;;13.91;77.02;98653.59;4478394;32;32876;-80
2023/10/28 07:43:48;;;;;;;1.87;1.08;;;;;;;14.20;75.19;98648.84;4478034;32;32975;-83
2023/10/28 07:46:18;;;;;;;2.65;1.10;;;;;;;14.18;75.26;98637.63;4478706;32;33563;-80
2023/10/28 07:48:47;;;;;;;1.98;1.30;;;;;;;14.15;76.02;98637.78;4482111;32;34494;-82
2023/10/28 07:51:20;;;;;;;2.50;1.33;;;;;;;14.33;75.60;98633.50;4471419;32;33700;-81
2023/10/28 07:53:50;;;;;;;2.12;1.40;;;;;;;14.41;75.80;98632.25;4465230;32;34018;-83
2023/10/28 07:56:22;;;;;;;2.10;1.17;;;;;;;14.45;75.67;98638.19;4463310;32;34740;-80
2023/10/28 07:58:53;;;;;;;3.62;1.55;;;;;;;14.60;75.66;98641.88;4463822;32;33742;-81
2023/10/28 08:01:24;;;;;;;2.67;1.45;;;;;;;14.74;75.38;98644.69;4468412;32;32686;-81
2023/10/28 08:03:54;;;;;;;3.30;1.10;;;;;;;14.84;75.27;98647.72;4463480;32;33741;-82
2023/10/28 08:06:27;;;;;;;1.48;0.90;;;;;;;14.92;75.25;98654.25;4466505;32;34272;-83
2023/10/28 08:09:06;;;;;;;2.10;1.45;;;;;;;15.02;75.28;98656.44;4462481;32;33530;-84
2023/10/28 08:11:36;;;;;;;2.22;1.10;;;;;;;15.09;74.98;98663.06;4467965;32;33424;-82
2023/10/28 08:14:09;;;;;;;2.72;1.10;;;;;;;15.32;74.28;98656.72;4465389;32;33416;-80
2023/10/28 08:16:38;;;;;;;3.22;1.52;;;;;;;15.28;72.95;98650.78;4465381;32;34739;-82
2023/10/28 08:19:13;;;;;;;1.62;0.85;;;;;;;15.48;72.85;98659.41;4447974;32;33338;-82
2023/10/28 08:21:42;;;;;;;2.72;1.05;;;;;;;15.73;70.35;98667.75;4462516;32;34138;-80
2023/10/28 08:24:15;;;;;;;1.33;1.00;;;;;;;15.80;69.73;98668.28;4453693;32;33637;-82
2023/10/28 08:26:45;;;;;;;1.58;1.08;;;;;;;15.82;69.72;98676.03;4464124;32;34513;-84
2023/10/28 08:29:19;;;;;;;1.33;0.90;;;;;;;15.83;70.61;98683.00;4462479;32;33710;-80
2023/10/28 08:31:48;;;;;;;3.00;1.50;;;;;;;15.98;70.50;98683.03;4461879;32;33824;-83
2023/10/28 08:34:21;;;;;;;0.98;0.88;;;;;;;16.23;69.23;98687.00;4462465;32;33841;-80
2023/10/28 08:36:52;;;;;;;1.70;1.30;;;;;;;16.33;68.52;98698.69;4467322;32;33646;-80
2023/10/28 08:39:23;;;;;;;1.92;1.00;;;;;;;16.37;67.30;98697.56;4462615;32;33743;-81
2023/10/28 08:41:58;;;;;;;2.20;1.20;;;;;;;16.50;66.75;98702.16;4462114;32;33919;-81
2023/10/28 08:44:28;;;;;;;1.77;1.25;;;;;;;16.34;67.81;98705.59;4464394;32;34048;-80
2023/10/28 08:47:06;;;;;;;2.37;1.30;;;;;;;16.53;67.64;98709.88;4468333;32;33365;-81
2023/10/28 08:49:46;;;;;;;2.10;1.30;;;;;;;16.48;68.09;98717.97;4467606;32;33187;-81
2023/10/28 08:52:23;;;;;;;1.23;1.10;;;;;;;16.76;66.55;98714.69;4462003;32;33817;-84
2023/10/28 08:54:52;;;;;;;3.42;1.48;;;;;;;16.64;67.36;98723.22;4473840;32;33903;-81
2023/10/28 08:57:26;;;;;;;1.87;1.20;;;;;;;16.80;66.84;98723.28;4477848;32;34492;-79
2023/10/28 08:59:56;;;;;;;1.55;0.93;;;;;;;16.79;65.98;98726.81;4479579;32;34409;-83
2023/10/28 09:02:25;;;;;;;1.80;1.33;;;;;;;17.00;64.75;98725.66;4483279;32;33442;-81
2023/10/28 09:04:55;;;;;;;2.37;1.08;;;;;;;16.97;64.59;98731.06;4479154;32;33516;-81
2023/10/28 09:07:28;;;;;;;2.08;1.08;;;;;;;16.78;66.12;98730.34;4464234;32;33568;-80
2023/10/28 09:09:59;;;;;;;1.27;0.90;;;;;;;16.89;66.53;98730.66;4478001;32;33535;-81
2023/10/28 09:12:34;;;;;;;4.78;1.87;;;;;;;16.98;66.69;98738.00;4483587;32;33019;-81
2023/10/28 09:15:03;;;;;;;2.17;0.90;;;;;;;17.28;65.32;98738.09;4463752;32;33851;-85
2023/10/28 09:17:40;;;;;;;0.93;0.60;;;;;;;17.36;63.90;98729.78;4478186;32;34379;-81
2023/10/28 09:20:13;;;;;;;1.40;0.77;;;;;;;17.33;63.31;98745.69;4475043;31;33581;-82
2023/10/28 09:22:45;;;;;;;0.57;0.57;;;;;;;17.27;64.71;98746.03;4461780;32;33339;-81
2023/10/28 09:25:15;;;;;;;1.12;0.57;;;;;;;17.38;61.90;98743.66;4467044;32;33892;-82
2023/10/28 09:27:45;;;;;;;0.43;0.43;;;;;;;17.18;62.51;98743.91;4461935;32;33828;-79
2023/10/28 09:30:17;;;;;;;1.00;0.70;;;;;;;17.26;62.32;98752.22;4448315;32;32985;-81
2023/10/28 09:32:46;;;;;;;1.25;0.80;;;;;;;17.32;62.84;98741.38;4462719;32;32839;-80
2023/10/28 09:35:19;;;;;;;0.52;0.50;;;;;;;17.28;63.23;98745.94;4467593;32;33238;-83
2023/10/28 09:37:50;;;;;;;0.50;0.50;;;;;;;17.34;63.55;98749.16;4467394;32;33677;-82
2023/10/28 09:40:23;;;;;;;0.43;0.40;;;;;;;17.45;63.68;98750.25;4461762;32;34514;-80
2023/10/28 09:43:05;;;;;;;0.40;0.40;;;;;;;17.60;62.63;98752.94;4462144;32;34924;-84
2023/10/28 09:45:35;;;;;;;1.90;0.80;;;;;;;17.60;61.32;98756.41;4465309;32;34481;-83
2023/10/28 09:48:13;;;;;;;1.25;0.60;;;;;;;17.73;60.84;98746.03;4463213;32;34280;-81
2023/10/28 09:50:48;;;;;;;1.20;0.70;;;;;;;17.62;61.68;98748.44;4467215;32;33941;-81
2023/10/28 09:53:17;;;;;;;0.77;0.50;;;;;;;17.89;59.16;98741.63;4461916;32;33904;-83
2023/10/28 09:55:56;;;;;;;1.45;0.60;;;;;;;17.83;59.76;98744.63;4464226;32;33529;-82
2023/10/28 09:58:31;;;;;;;0.68;0.50;;;;;;;17.83;59.46;98742.00;4462171;32;33582;-80
2023/10/28 10:01:07;;;;;;;0.47;0.47;;;;;;;18.22;57.24;98740.59;4467933;32;33436;-84
2023/10/28 10:03:59;;;;;;;1.25;0.62;;;;;;;17.98;58.25;98744.66;4482621;32;33914;-81
2023/10/28 10:06:28;;;;;;;0.30;0.30;;;;;;;18.12;57.57;98740.28;4477253;32;32592;-83
2023/10/28 10:09:08;;;;;;;0.45;0.45;;;;;;;18.23;57.17;98744.06;4477182;32;34531;-81
2023/10/28 10:11:42;;;;;;;0.88;0.50;;;;;;;18.07;58.10;98744.09;4477338;32;34496;-82
2023/10/28 10:14:14;;;;;;;0.30;0.30;;;;;;;18.17;57.37;98737.41;4477413;32;34279;-81
2023/10/28 10:16:51;;;;;;;1.27;0.50;;;;;;;18.13;57.77;98734.09;4482492;32;34044;-83
2023/10/28 10:19:22;;;;;;;0.32;0.32;;;;;;;18.30;57.54;98727.84;4476855;32;33799;-79
2023/10/28 10:21:52;;;;;;;0.47;0.40;;;;;;;18.28;57.84;98740.19;4476980;32;34537;-80
2023/10/28 10:24:24;;;;;;;0.30;0.30;;;;;;;18.58;55.81;98744.56;4482505;32;33239;-81
2023/10/28 10:26:54;;;;;;;0.47;0.47;;;;;;;18.30;55.87;98738.34;4477270;32;33785;-81
2023/10/28 10:29:46;;;;;;;1.05;0.90;;;;;;;18.32;55.28;98731.22;4467999;32;33322;-83
2023/10/28 10:32:17;;;;;;;0.40;0.40;;;;;;;18.34;55.44;98720.63;4476625;32;33598;-80
2023/10/28 10:34:47;;;;;;;0.30;0.30;;;;;;;18.03;54.67;98727.72;4482294;32;32772;-81
2023/10/28 10:37:22;;;;;;;0.43;0.30;;;;;;;17.52;56.84;98727.16;4478179;32;33856;-84
2023/10/28 10:39:57;;;;;;;1.58;0.70;;;;;;;17.65;57.08;98733.38;4476615;32;33978;-83
2023/10/28 10:42:36;;;;;;;0.40;0.40;;;;;;;17.52;56.72;98734.16;4481397;32;34357;-81
2023/10/28 10:45:17;;;;;;;0.40;0.40;;;;;;;17.63;56.99;98737.84;4476326;32;33156;-81
2023/10/28 10:47:47;;;;;;;0.55;0.50;;;;;;;17.73;57.02;98748.66;4478220;32;33586;-82
2023/10/28 10:50:23;;;;;;;0.30;0.30;;;;;;;17.71;57.67;98747.94;4474803;32;34097;-81
2023/10/28 10:52:56;;;;;;;0.60;0.45;;;;;;;17.87;56.74;98740.88;4470574;32;33016;-82
2023/10/28 10:55:27;;;;;;;0.88;0.37;;;;;;;17.97;56.15;98735.09;4466677;32;34036;-80
2023/10/28 10:58:01;;;;;;;0.30;0.30;;;;;;;18.19;54.78;98732.88;4462161;32;33392;-80
2023/10/28 11:00:32;;;;;;;0.30;0.30;;;;;;;18.06;54.29;98730.13;4460793;32;34111;-84
2023/10/28 11:03:07;;;;;;;0.95;0.32;;;;;;;18.19;54.38;98738.13;4461308;32;33334;-80
2023/10/28 11:05:46;;;;;;;0.40;0.40;;;;;;;18.25;55.17;98739.56;4460854;32;34170;-81
2023/10/28 11:08:15;;;;;;;0.57;0.40;;;;;;;18.12;55.54;98747.28;4466355;32;33320;-84
2023/10/28 11:10:46;;;;;;;0.30;0.30;;;;;;;18.27;55.44;98743.78;4460736;32;34677;-82
2023/10/28 11:13:14;;;;;;;0.30;0.30;;;;;;;18.49;54.34;98743.31;4461050;32;33891;-81
2023/10/28 11:15:49;;;;;;;0.37;0.32;;;;;;;18.51;54.64;98732.75;4465002;32;34089;-79
2023/10/28 11:18:18;;;;;;;0.30;0.30;;;;;;;18.49;54.76;98726.72;4460537;32;33081;-81
2023/10/28 11:20:54;;;;;;;0.30;0.30;;;;;;;18.72;54.07;98720.87;4466389;32;34058;-81
2023/10/28 11:23:31;;;;;;;0.20;0.20;;;;;;;18.58;54.35;98712.16;4446586;32;33671;-82
2023/10/28 11:26:06;;;;;;;0.55;0.40;;;;;;;18.44;53.27;98716.50;4465709;32;33640;-82
2023/10/28 11:28:39;;;;;;;0.45;0.40;;;;;;;18.14;54.56;98713.94;4460424;32;33797;-81
2023/10/28 11:31:19;;;;;;;0.30;0.30;;;;;;;18.29;53.61;98713.03;4445884;32;32973;-81
2023/10/28 11:33:55;;;;;;;0.62;0.40;;;;;;;18.48;53.89;98715.38;4466016;32;33942;-81
2023/10/28 11:36:25;;;;;;;0.30;0.30;;;;;;;18.55;53.70;98714.03;4462678;32;33484;-82
2023/10/28 11:39:12;;;;;;;0.60;0.40;;;;;;;18.64;54.15;98724.94;4460119;32;33796;-81
2023/10/28 11:41:47;;;;;;;0.47;0.35;;;;;;;18.67;53.66;98717.69;4460366;32;34914;-81
2023/10/28 11:44:19;;;;;;;0.45;0.30;;;;;;;18.49;53.37;98724.94;4461335;32;35270;-80
2023/10/28 11:46:50;;;;;;;0.40;0.40;;;;;;;18.71;52.08;98716.56;4465672;32;33021;-80
2023/10/28 11:49:22;;;;;;;0.30;0.30;;;;;;;18.64;53.07;98722.31;4462257;32;33690;-81
2023/10/28 11:51:51;;;;;;;0.47;0.40;;;;;;;18.67;52.91;98725.56;4462921;32;33576;-79
2023/10/28 11:54:24;;;;;;;0.35;0.35;;;;;;;18.82;54.07;98725.59;4464345;32;33806;-82
2023/10/28 11:56:53;;;;;;;0.40;0.40;;;;;;;18.99;52.99;98728.00;4476925;32;32940;-80